createdAt,value
2022-08-26T00:01:28.961Z,22.36
2022-08-26T00:03:56.744Z,22.36
2022-08-26T00:06:23.567Z,22.39
2022-08-26T00:08:50.427Z,22.37
2022-08-26T00:11:26.840Z,22.32
2022-08-26T00:13:55.013Z,22.25
2022-08-26T00:16:22.589Z,22.19
2022-08-26T00:18:49.980Z,22.12
2022-08-26T00:21:16.954Z,22.06
2022-08-26T00:23:43.643Z,22.02
2022-08-26T00:26:11.094Z,22.01
2022-08-26T00:28:38.071Z,22.00
2022-08-26T00:31:07.405Z,21.99
2022-08-26T00:33:38.235Z,21.99
2022-08-26T00:36:05.958Z,22.01
2022-08-26T00:38:32.843Z,22.04
2022-08-26T00:40:59.657Z,22.05
2022-08-26T00:43:26.782Z,22.04
2022-08-26T00:45:57.062Z,22.01
2022-08-26T00:48:25.725Z,22.02
2022-08-26T00:51:01.556Z,22.01
2022-08-26T00:53:31.003Z,21.96
2022-08-26T00:56:20.766Z,21.96
2022-08-26T00:58:48.123Z,21.95
2022-08-26T01:03:42.262Z,21.90
2022-08-26T01:06:12.643Z,21.90
2022-08-26T01:08:40.851Z,21.87
2022-08-26T01:11:08.069Z,21.84
2022-08-26T01:13:36.368Z,21.78
2022-08-26T01:16:05.438Z,21.69
2022-08-26T01:18:33.306Z,21.65
2022-08-26T01:21:06.168Z,21.59
2022-08-26T01:23:35.931Z,21.56
2022-08-26T01:26:05.055Z,21.53
2022-08-26T01:28:33.902Z,21.49
2022-08-26T01:31:02.877Z,21.49
2022-08-26T01:33:42.122Z,21.43
2022-08-26T01:36:10.896Z,21.39
2022-08-26T01:38:40.484Z,21.33
2022-08-26T01:41:16.181Z,21.30
2022-08-26T01:43:49.381Z,21.29
2022-08-26T01:46:16.728Z,21.18
2022-08-26T01:48:44.843Z,21.11
2022-08-26T01:51:12.317Z,21.12
2022-08-26T01:53:39.927Z,21.08
2022-08-26T01:56:10.675Z,21.04
2022-08-26T01:58:48.506Z,21.01
2022-08-26T02:01:15.671Z,20.95
2022-08-26T02:04:03.172Z,20.92
2022-08-26T02:06:30.487Z,20.83
2022-08-26T02:08:59.987Z,20.77
2022-08-26T02:11:27.588Z,20.73
2022-08-26T02:13:58.292Z,20.68
2022-08-26T02:16:26.986Z,20.64
2022-08-26T02:18:54.003Z,20.58
2022-08-26T02:21:20.712Z,20.55
2022-08-26T02:23:47.655Z,20.52
2022-08-26T02:26:19.233Z,20.48
2022-08-26T02:28:48.898Z,20.42
2022-08-26T02:31:15.742Z,20.37
2022-08-26T02:33:43.094Z,20.29
2022-08-26T02:36:10.058Z,20.25
2022-08-26T02:38:38.976Z,20.18
2022-08-26T02:41:06.512Z,20.16
2022-08-26T02:43:34.835Z,20.13
2022-08-26T02:46:02.310Z,20.08
2022-08-26T02:48:29.408Z,20.07
2022-08-26T02:50:56.049Z,20.09
2022-08-26T02:53:25.333Z,20.06
2022-08-26T02:55:52.583Z,20.06
2022-08-26T02:58:19.470Z,20.01
2022-08-26T03:00:52.973Z,19.97
2022-08-26T03:03:20.771Z,19.96
2022-08-26T03:05:50.890Z,19.94
2022-08-26T03:08:17.575Z,19.92
2022-08-26T03:10:44.373Z,19.92
2022-08-26T03:13:16.770Z,19.93
2022-08-26T03:15:44.067Z,19.94
2022-08-26T03:18:13.307Z,19.88
2022-08-26T03:20:40.056Z,19.84
2022-08-26T03:23:07.767Z,19.80
2022-08-26T03:25:36.041Z,19.77
2022-08-26T03:28:03.572Z,19.77
2022-08-26T03:30:44.923Z,19.78
2022-08-26T03:33:37.523Z,19.82
2022-08-26T03:36:06.598Z,19.80
2022-08-26T03:38:33.438Z,19.78
2022-08-26T03:41:00.845Z,19.81
2022-08-26T03:43:28.324Z,19.78
2022-08-26T03:45:55.597Z,19.77
2022-08-26T03:48:22.227Z,19.77
2022-08-26T03:50:48.859Z,19.79
2022-08-26T03:53:20.485Z,19.77
2022-08-26T03:55:47.264Z,19.76
2022-08-26T03:58:18.736Z,19.80
2022-08-26T04:00:45.581Z,19.84
2022-08-26T04:03:33.090Z,19.89
2022-08-26T04:05:59.926Z,19.97
2022-08-26T04:08:26.575Z,20.05
2022-08-26T04:10:54.809Z,20.10
2022-08-26T04:13:22.127Z,20.12
2022-08-26T04:15:48.818Z,20.20
2022-08-26T04:18:16.253Z,20.26
2022-08-26T04:20:43.133Z,20.26
2022-08-26T04:23:10.226Z,20.27
2022-08-26T04:25:37.018Z,20.24
2022-08-26T04:28:07.356Z,20.17
2022-08-26T04:30:37.015Z,20.22
2022-08-26T04:33:04.622Z,20.28
2022-08-26T04:35:40.067Z,20.36
2022-08-26T04:38:10.075Z,20.48
2022-08-26T04:40:36.983Z,20.50
2022-08-26T04:43:05.895Z,20.55
2022-08-26T04:45:36.079Z,20.66
2022-08-26T04:48:03.741Z,20.70
2022-08-26T04:50:31.312Z,20.70
2022-08-26T04:53:04.933Z,20.69
2022-08-26T04:55:38.765Z,20.71
2022-08-26T04:58:19.364Z,20.62
2022-08-26T05:00:47.261Z,20.67
2022-08-26T05:03:14.133Z,20.75
2022-08-26T05:05:45.390Z,20.74
2022-08-26T05:08:13.930Z,20.85
2022-08-26T05:10:46.295Z,20.95
2022-08-26T05:13:15.619Z,21.03
2022-08-26T05:15:43.120Z,21.03
2022-08-26T05:18:10.928Z,21.03
2022-08-26T05:20:43.686Z,21.12
2022-08-26T05:23:13.237Z,21.26
2022-08-26T05:25:42.027Z,21.35
2022-08-26T05:28:09.476Z,21.37
2022-08-26T05:30:36.780Z,21.50
2022-08-26T05:33:04.372Z,21.53
2022-08-26T05:35:32.546Z,21.61
2022-08-26T05:38:01.593Z,21.61
2022-08-26T05:40:29.255Z,21.67
2022-08-26T05:42:56.027Z,21.87
2022-08-26T05:45:25.130Z,22.02
2022-08-26T05:47:51.989Z,21.99
2022-08-26T05:50:21.941Z,21.89
2022-08-26T05:52:49.947Z,21.97
2022-08-26T05:55:17.536Z,22.03
2022-08-26T05:57:45.396Z,22.02
2022-08-26T06:00:12.761Z,21.94
2022-08-26T06:02:40.098Z,21.94
2022-08-26T06:05:07.621Z,22.12
2022-08-26T06:07:54.028Z,22.23
2022-08-26T06:10:32.125Z,22.38
2022-08-26T06:13:02.301Z,22.43
2022-08-26T06:15:39.331Z,22.53
2022-08-26T06:18:08.978Z,22.66
2022-08-26T06:20:36.696Z,22.85
2022-08-26T06:23:22.636Z,22.98
2022-08-26T06:25:50.445Z,23.12
2022-08-26T06:28:17.524Z,23.23
2022-08-26T06:30:45.902Z,23.25
2022-08-26T06:33:13.885Z,23.27
2022-08-26T06:35:41.910Z,23.39
2022-08-26T06:38:09.240Z,23.50
2022-08-26T06:40:43.311Z,23.62
2022-08-26T06:43:12.521Z,23.81
2022-08-26T06:45:39.717Z,23.96
2022-08-26T06:48:08.320Z,24.08
2022-08-26T06:50:36.863Z,24.13
2022-08-26T06:53:03.850Z,24.16
2022-08-26T06:55:30.771Z,24.27
2022-08-26T06:57:58.370Z,24.42
2022-08-26T07:00:25.511Z,24.46
2022-08-26T07:02:52.741Z,24.60
2022-08-26T07:05:19.691Z,24.79
2022-08-26T07:07:47.141Z,24.89
2022-08-26T07:10:15.081Z,25.02
2022-08-26T07:12:53.812Z,25.22
2022-08-26T07:15:20.769Z,25.25
2022-08-26T07:17:54.555Z,25.30
2022-08-26T07:20:22.255Z,25.29
2022-08-26T07:22:49.366Z,25.32
2022-08-26T07:25:16.821Z,25.48
2022-08-26T07:27:46.528Z,25.68
2022-08-26T07:30:23.393Z,25.94
2022-08-26T07:32:56.272Z,26.02
2022-08-26T07:35:24.101Z,26.00
2022-08-26T07:37:55.089Z,25.96
2022-08-26T07:40:24.120Z,26.11
2022-08-26T07:42:51.186Z,26.13
2022-08-26T07:45:19.484Z,26.04
2022-08-26T07:47:47.305Z,26.06
2022-08-26T07:50:14.298Z,26.20
2022-08-26T07:52:42.423Z,26.27
2022-08-26T07:55:11.045Z,26.41
2022-08-26T07:57:39.938Z,26.59
2022-08-26T08:00:08.877Z,26.61
2022-08-26T08:02:35.653Z,26.74
2022-08-26T08:05:02.975Z,26.71
2022-08-26T08:07:45.260Z,26.71
2022-08-26T08:10:21.790Z,26.74
2022-08-26T08:12:53.273Z,26.89
2022-08-26T08:15:24.972Z,27.10
2022-08-26T08:17:52.569Z,27.24
2022-08-26T08:20:23.110Z,27.21
2022-08-26T08:25:59.813Z,27.31
2022-08-26T08:28:27.891Z,27.38
2022-08-26T08:30:56.160Z,27.52
2022-08-26T08:33:23.147Z,27.66
2022-08-26T08:35:50.728Z,27.88
2022-08-26T08:38:17.902Z,27.94
2022-08-26T08:40:48.366Z,27.94
2022-08-26T08:43:48.414Z,28.08
2022-08-26T08:46:22.184Z,28.11
2022-08-26T08:48:56.939Z,28.21
2022-08-26T08:51:32.613Z,28.32
2022-08-26T08:54:00.601Z,28.37
2022-08-26T08:56:30.822Z,28.30
2022-08-26T08:59:06.806Z,28.26
2022-08-26T09:01:52.475Z,28.28
2022-08-26T09:04:24.301Z,28.41
2022-08-26T09:06:54.238Z,28.55
2022-08-26T09:09:37.642Z,28.57
2022-08-26T09:12:07.367Z,28.72
2022-08-26T09:14:35.916Z,28.89
2022-08-26T09:17:02.627Z,28.96
2022-08-26T09:19:35.233Z,29.03
2022-08-26T09:22:05.778Z,28.85
2022-08-26T09:24:41.930Z,28.84
2022-08-26T09:27:34.886Z,28.86
2022-08-26T09:30:05.644Z,28.88
2022-08-26T09:32:33.093Z,29.07
2022-08-26T09:35:07.795Z,29.11
2022-08-26T09:37:37.901Z,29.12
2022-08-26T09:40:34.918Z,29.15
2022-08-26T09:43:08.398Z,29.26
2022-08-26T09:45:35.815Z,29.35
2022-08-26T09:48:02.712Z,29.40
2022-08-26T09:50:35.345Z,29.44
2022-08-26T09:53:14.758Z,29.40
2022-08-26T09:55:43.924Z,29.43
2022-08-26T09:58:31.770Z,29.48
2022-08-26T10:01:01.626Z,29.64
2022-08-26T10:03:32.926Z,29.66
2022-08-26T10:06:21.093Z,29.60
2022-08-26T10:08:49.900Z,29.59
2022-08-26T10:11:23.735Z,29.64
2022-08-26T10:14:00.894Z,29.59
2022-08-26T10:16:29.874Z,29.66
2022-08-26T10:19:15.809Z,29.77
2022-08-26T10:21:52.254Z,29.85
2022-08-26T10:24:28.035Z,30.00
2022-08-26T10:27:00.660Z,30.08
2022-08-26T10:29:39.655Z,30.21
2022-08-26T10:32:13.872Z,30.39
2022-08-26T10:34:41.838Z,30.40
2022-08-26T10:37:20.534Z,30.41
2022-08-26T10:40:00.647Z,30.46
2022-08-26T10:42:30.499Z,30.41
2022-08-26T10:45:02.507Z,30.50
2022-08-26T10:47:42.022Z,30.64
2022-08-26T10:50:08.951Z,30.74
2022-08-26T10:52:47.914Z,30.76
2022-08-26T10:55:43.858Z,30.72
2022-08-26T10:58:29.452Z,30.77
2022-08-26T11:01:34.393Z,30.83
2022-08-26T11:04:22.412Z,30.92
2022-08-26T11:06:49.715Z,30.96
2022-08-26T11:09:35.092Z,31.01
2022-08-26T11:12:09.947Z,31.04
2022-08-26T11:14:44.662Z,31.12
2022-08-26T11:17:40.498Z,31.27
2022-08-26T11:20:13.250Z,31.48
2022-08-26T11:22:47.962Z,31.65
2022-08-26T11:25:15.846Z,31.73
2022-08-26T11:27:48.171Z,31.77
2022-08-26T11:30:15.859Z,31.59
2022-08-26T11:32:55.081Z,31.75
2022-08-26T11:35:37.349Z,31.73
2022-08-26T11:38:04.457Z,31.73
2022-08-26T11:40:38.490Z,31.87
2022-08-26T11:43:18.738Z,31.97
2022-08-26T11:45:48.566Z,31.98
2022-08-26T11:48:25.444Z,31.99
2022-08-26T11:50:55.429Z,32.12
2022-08-26T11:53:22.917Z,32.16
2022-08-26T11:55:51.786Z,32.19
2022-08-26T11:58:21.096Z,32.21
2022-08-26T12:00:57.858Z,32.16
2022-08-26T12:03:40.192Z,32.05
2022-08-26T12:06:16.154Z,32.05
2022-08-26T12:08:44.037Z,32.13
2022-08-26T12:11:13.730Z,32.24
2022-08-26T12:13:41.597Z,32.30
2022-08-26T12:16:09.908Z,32.35
2022-08-26T12:18:38.762Z,32.32
2022-08-26T12:21:19.323Z,32.36
2022-08-26T12:23:47.482Z,32.38
2022-08-26T12:26:34.649Z,32.35
2022-08-26T12:29:10.819Z,32.38
2022-08-26T12:31:46.825Z,32.39
2022-08-26T12:34:18.781Z,32.42
2022-08-26T12:36:46.706Z,32.56
2022-08-26T12:39:15.893Z,32.64
2022-08-26T12:41:46.928Z,32.56
2022-08-26T12:44:56.901Z,32.44
2022-08-26T12:47:42.789Z,32.26
2022-08-26T12:50:24.428Z,32.45
2022-08-26T12:52:57.129Z,32.55
2022-08-26T12:55:25.697Z,32.66
2022-08-26T12:58:09.680Z,32.67
2022-08-26T13:00:38.039Z,32.71
2022-08-26T13:03:25.111Z,32.72
2022-08-26T13:05:51.889Z,32.77
2022-08-26T13:08:25.841Z,32.62
2022-08-26T13:11:03.360Z,32.84
2022-08-26T13:13:30.986Z,32.90
2022-08-26T13:15:57.629Z,32.86
2022-08-26T13:18:25.406Z,32.82
2022-08-26T13:20:52.658Z,32.79
2022-08-26T13:23:21.412Z,32.70
2022-08-26T13:25:48.046Z,32.71
2022-08-26T13:28:15.072Z,32.79
2022-08-26T13:30:44.319Z,32.86
2022-08-26T13:33:12.280Z,32.92
2022-08-26T13:35:41.457Z,32.91
2022-08-26T13:38:14.627Z,32.87
2022-08-26T13:41:03.564Z,32.86
2022-08-26T13:43:31.216Z,32.96
2022-08-26T13:45:58.033Z,33.01
2022-08-26T13:48:28.588Z,32.98
2022-08-26T13:50:55.371Z,32.92
2022-08-26T13:53:22.099Z,32.87
2022-08-26T13:55:49.182Z,32.92
2022-08-26T13:58:16.437Z,32.97
2022-08-26T14:00:43.529Z,32.95
2022-08-26T14:03:20.878Z,32.97
2022-08-26T14:05:47.811Z,32.99
2022-08-26T14:08:14.641Z,32.93
2022-08-26T14:10:42.088Z,32.94
2022-08-26T14:13:08.845Z,32.89
2022-08-26T14:15:37.684Z,32.96
2022-08-26T14:18:05.781Z,33.03
2022-08-26T14:20:34.966Z,33.06
2022-08-26T14:23:26.963Z,32.94
2022-08-26T14:25:54.068Z,32.98
2022-08-26T14:28:20.993Z,33.04
2022-08-26T14:30:50.401Z,33.13
2022-08-26T14:33:17.973Z,33.07
2022-08-26T14:35:47.951Z,33.04
2022-08-26T14:38:16.687Z,32.98
2022-08-26T14:40:46.959Z,32.94
2022-08-26T14:43:24.279Z,32.97
2022-08-26T14:45:51.221Z,32.94
2022-08-26T14:48:19.368Z,32.97
2022-08-26T14:50:46.400Z,32.93
2022-08-26T14:53:31.778Z,32.89
2022-08-26T14:55:58.885Z,32.82
2022-08-26T14:58:25.589Z,32.73
2022-08-26T15:00:59.487Z,32.73
2022-08-26T15:03:31.209Z,32.78
2022-08-26T15:05:58.148Z,32.75
2022-08-26T15:08:25.514Z,32.74
2022-08-26T15:10:52.328Z,32.71
2022-08-26T15:13:19.119Z,32.64
2022-08-26T15:15:46.958Z,32.63
2022-08-26T15:18:13.782Z,32.58
2022-08-26T15:20:40.571Z,32.51
2022-08-26T15:23:08.055Z,32.47
2022-08-26T15:25:35.515Z,32.38
2022-08-26T15:28:02.634Z,32.29
2022-08-26T15:30:32.130Z,32.31
2022-08-26T15:32:59.146Z,32.35
2022-08-26T15:35:25.872Z,32.32
2022-08-26T15:40:22.087Z,32.17
2022-08-26T15:42:54.345Z,32.14
2022-08-26T15:45:27.996Z,32.07
2022-08-26T15:48:01.175Z,32.03
2022-08-26T15:50:29.211Z,32.03
2022-08-26T15:52:56.606Z,32.04
2022-08-26T15:55:23.678Z,32.04
2022-08-26T15:57:50.493Z,31.99
2022-08-26T16:00:17.649Z,32.00
2022-08-26T16:02:44.561Z,31.99
2022-08-26T16:05:11.266Z,31.97
2022-08-26T16:07:38.125Z,31.90
2022-08-26T16:10:04.905Z,31.83
2022-08-26T16:12:31.518Z,31.83
2022-08-26T16:14:58.402Z,31.79
2022-08-26T16:17:25.677Z,31.76
2022-08-26T16:19:52.355Z,31.70
2022-08-26T16:22:19.196Z,31.63
2022-08-26T16:24:46.624Z,31.61
2022-08-26T16:27:13.240Z,31.57
2022-08-26T16:29:40.237Z,31.56
2022-08-26T16:32:08.852Z,31.49
2022-08-26T16:34:36.059Z,31.52
2022-08-26T16:37:02.888Z,31.57
2022-08-26T16:39:29.946Z,31.57
2022-08-26T16:41:56.675Z,31.56
2022-08-26T16:44:24.284Z,31.47
2022-08-26T16:46:58.685Z,31.42
2022-08-26T16:49:25.740Z,31.36
2022-08-26T16:51:52.402Z,31.33
2022-08-26T16:54:19.286Z,31.29
2022-08-26T16:56:46.139Z,31.25
2022-08-26T16:59:12.960Z,31.22
2022-08-26T17:01:39.858Z,31.20
2022-08-26T17:04:07.096Z,31.17
2022-08-26T17:06:34.126Z,31.10
2022-08-26T17:09:01.029Z,31.01
2022-08-26T17:11:27.644Z,30.92
2022-08-26T17:13:54.494Z,30.84
2022-08-26T17:16:26.204Z,30.74
2022-08-26T17:18:54.181Z,30.60
2022-08-26T17:21:20.991Z,30.48
2022-08-26T17:23:48.037Z,30.39
2022-08-26T17:26:14.754Z,30.29
2022-08-26T17:28:41.535Z,30.17
2022-08-26T17:31:09.736Z,30.09
2022-08-26T17:33:36.566Z,29.98
2022-08-26T17:36:05.913Z,29.85
2022-08-26T17:38:32.742Z,29.77
2022-08-26T17:40:59.353Z,29.66
2022-08-26T17:43:26.781Z,29.55
2022-08-26T17:45:57.852Z,29.47
2022-08-26T17:48:31.428Z,29.37
2022-08-26T17:50:58.579Z,29.29
2022-08-26T17:53:25.505Z,29.20
2022-08-26T17:55:52.763Z,29.14
2022-08-26T17:58:22.728Z,29.07
2022-08-26T18:00:51.439Z,29.01
2022-08-26T18:03:19.177Z,28.93
2022-08-26T18:05:50.342Z,28.85
2022-08-26T18:08:16.968Z,28.77
2022-08-26T18:10:44.032Z,28.72
2022-08-26T18:13:11.367Z,28.63
2022-08-26T18:15:39.417Z,28.56
2022-08-26T18:18:06.081Z,28.47
2022-08-26T18:20:33.359Z,28.38
2022-08-26T18:23:05.796Z,28.36
2022-08-26T18:25:33.284Z,28.28
2022-08-26T18:28:01.183Z,28.19
2022-08-26T18:30:27.764Z,28.08
2022-08-26T18:32:54.421Z,28.01
2022-08-26T18:35:21.534Z,27.94
2022-08-26T18:37:48.143Z,27.93
2022-08-26T18:40:14.938Z,27.99
2022-08-26T18:42:41.844Z,28.01
2022-08-26T18:45:09.299Z,27.96
2022-08-26T18:47:36.387Z,27.94
2022-08-26T18:50:04.399Z,27.95
2022-08-26T18:52:31.486Z,27.93
2022-08-26T18:54:58.498Z,27.81
2022-08-26T18:57:25.466Z,27.73
2022-08-26T18:59:52.112Z,27.66
2022-08-26T19:02:18.958Z,27.64
2022-08-26T19:04:45.965Z,27.59
2022-08-26T19:07:12.680Z,27.54
2022-08-26T19:09:39.991Z,27.47
2022-08-26T19:12:08.921Z,27.38
2022-08-26T19:14:35.919Z,27.28
2022-08-26T19:17:03.003Z,27.20
2022-08-26T19:19:30.217Z,27.14
2022-08-26T19:21:56.892Z,27.08
2022-08-26T19:24:27.289Z,27.04
2022-08-26T19:26:57.908Z,27.00
2022-08-26T19:29:26.066Z,26.96
2022-08-26T19:31:56.213Z,26.96
2022-08-26T19:34:28.406Z,26.97
2022-08-26T19:36:56.890Z,26.94
2022-08-26T19:39:23.650Z,26.92
2022-08-26T19:41:50.634Z,26.93
2022-08-26T19:44:37.455Z,26.91
2022-08-26T19:47:05.131Z,26.89
2022-08-26T19:49:32.296Z,26.86
2022-08-26T19:51:59.492Z,26.83
2022-08-26T19:54:27.123Z,26.76
2022-08-26T19:56:54.671Z,26.74
2022-08-26T19:59:21.982Z,26.56
2022-08-26T20:01:49.908Z,26.76
2022-08-26T20:04:29.127Z,26.78
2022-08-26T20:07:01.011Z,26.80
2022-08-26T20:09:29.550Z,26.68
2022-08-26T20:11:59.025Z,26.53
2022-08-26T20:14:41.233Z,26.37
2022-08-26T20:17:08.418Z,26.26
2022-08-26T20:19:59.108Z,26.16
2022-08-26T20:22:31.912Z,26.11
2022-08-26T20:24:59.575Z,26.05
2022-08-26T20:27:34.725Z,25.97
2022-08-26T20:30:05.887Z,25.91
2022-08-26T20:32:38.527Z,25.92
2022-08-26T20:35:10.300Z,25.94
2022-08-26T20:37:40.188Z,25.83
2022-08-26T20:40:08.899Z,25.71
2022-08-26T20:42:35.703Z,25.63
2022-08-26T20:45:03.358Z,25.56
2022-08-26T20:47:30.199Z,25.49
2022-08-26T20:49:57.906Z,25.50
2022-08-26T20:52:25.481Z,25.45
2022-08-26T20:54:52.173Z,25.42
2022-08-26T20:57:19.022Z,25.36
2022-08-26T20:59:45.936Z,25.23
2022-08-26T21:02:12.735Z,25.12
2022-08-26T21:04:40.399Z,24.95
2022-08-26T21:07:07.342Z,24.85
2022-08-26T21:09:34.055Z,24.74
2022-08-26T21:12:01.443Z,24.61
2022-08-26T21:14:28.449Z,24.55
2022-08-26T21:16:56.680Z,24.49
2022-08-26T21:19:23.397Z,24.44
2022-08-26T21:21:50.410Z,24.39
2022-08-26T21:24:27.236Z,24.40
2022-08-26T21:26:54.130Z,24.33
2022-08-26T21:29:22.294Z,24.23
2022-08-26T21:31:49.388Z,24.13
2022-08-26T21:34:19.533Z,24.00
2022-08-26T21:36:47.054Z,23.88
2022-08-26T21:39:14.321Z,23.85
2022-08-26T21:41:42.291Z,23.77
2022-08-26T21:44:09.864Z,23.68
2022-08-26T21:46:37.319Z,23.61
2022-08-26T21:49:05.556Z,23.57
2022-08-26T21:51:33.102Z,23.55
2022-08-26T21:54:00.477Z,23.53
2022-08-26T21:56:28.546Z,23.52
2022-08-26T21:58:56.113Z,23.54
2022-08-26T22:01:24.959Z,23.53
2022-08-26T22:03:52.655Z,23.52
2022-08-26T22:06:25.321Z,23.51
2022-08-26T22:08:52.402Z,23.48
2022-08-26T22:11:19.241Z,23.44
2022-08-26T22:13:46.223Z,23.41
2022-08-26T22:16:13.557Z,23.37
2022-08-26T22:18:43.836Z,23.36
2022-08-26T22:21:11.926Z,23.35
2022-08-26T22:23:38.922Z,23.35
2022-08-26T22:26:06.643Z,23.31
2022-08-26T22:28:33.337Z,23.31
2022-08-26T22:31:00.491Z,23.27
2022-08-26T22:33:27.826Z,23.27
2022-08-26T22:35:54.535Z,23.28
2022-08-26T22:38:23.733Z,23.24
2022-08-26T22:40:57.627Z,23.22
2022-08-26T22:43:25.097Z,23.19
2022-08-26T22:45:52.962Z,23.16
2022-08-26T22:48:21.518Z,23.15
2022-08-26T22:50:49.018Z,23.16
2022-08-26T22:53:17.032Z,23.12
2022-08-26T22:55:43.932Z,23.08
2022-08-26T22:58:12.198Z,23.06
2022-08-26T23:00:40.005Z,23.01
2022-08-26T23:03:07.724Z,23.00
2022-08-26T23:05:34.978Z,22.97
2022-08-26T23:08:05.769Z,22.93
2022-08-26T23:10:33.018Z,22.90
2022-08-26T23:12:59.700Z,22.87
2022-08-26T23:15:26.704Z,22.81
2022-08-26T23:17:58.961Z,22.79
2022-08-26T23:20:26.771Z,22.75
2022-08-26T23:22:53.958Z,22.73
2022-08-26T23:25:20.739Z,22.69
2022-08-26T23:27:47.740Z,22.67
2022-08-26T23:30:16.952Z,22.67
2022-08-26T23:32:43.594Z,22.68
2022-08-26T23:35:11.383Z,22.69
2022-08-26T23:37:43.695Z,22.66
2022-08-26T23:40:18.720Z,22.66
2022-08-26T23:42:45.735Z,22.65
2022-08-26T23:45:13.009Z,22.63
2022-08-26T23:47:41.163Z,22.63
2022-08-26T23:50:08.599Z,22.66
2022-08-26T23:52:53.856Z,22.63
2022-08-26T23:55:20.813Z,22.61
2022-08-26T23:57:47.602Z,22.59
